Time;durP1;ratioP1;P1;durP2;ratioP2;P2;SDS_P1;SDS_P2;PMS_P1;PMS_P2;Temp;Humidity;BMP_temperature;BMP_pressure;BME280_temperature;BME280_humidity;BME280_pressure;Samples;Min_cycle;Max_cycle;Signal;HPM_P1;HPM_P2
2022/02/19 00:00:53;;;;;;;4.77;2.37;;;;;;;5.81;74.92;98373.34;4987616;28;20476;-81
2022/02/19 00:03:20;;;;;;;5.20;1.77;;;;;;;5.78;74.78;98384.78;4978900;28;20049;-81
2022/02/19 00:05:47;;;;;;;5.47;1.40;;;;;;;5.79;74.27;98389.09;4984597;28;20053;-81
2022/02/19 00:08:14;;;;;;;4.97;1.77;;;;;;;5.77;73.54;98335.91;4998225;28;20031;-80
2022/02/19 00:10:42;;;;;;;4.40;1.90;;;;;;;5.84;72.91;98370.59;4972309;28;20461;-81
2022/02/19 00:13:09;;;;;;;6.90;1.97;;;;;;;5.85;72.57;98395.88;4973103;28;20053;-84
2022/02/19 00:15:36;;;;;;;4.37;1.33;;;;;;;5.87;71.82;98379.19;4964090;28;20046;-83
2022/02/19 00:18:04;;;;;;;5.90;1.60;;;;;;;5.84;69.47;98370.59;4973874;28;20033;-81
2022/02/19 00:20:32;;;;;;;4.77;1.57;;;;;;;5.97;69.96;98352.66;4960304;28;20041;-82
2022/02/19 00:23:00;;;;;;;4.23;1.63;;;;;;;5.97;69.33;98376.25;4978428;28;20100;-81
2022/02/19 00:25:30;;;;;;;3.63;1.60;;;;;;;6.02;68.44;98387.41;4992254;28;20049;-81
2022/02/19 00:27:57;;;;;;;4.63;1.40;;;;;;;6.02;68.37;98342.88;4988539;28;20064;-83
2022/02/19 00:30:23;;;;;;;3.90;1.70;;;;;;;6.06;68.22;98357.56;5004215;28;20072;-82
2022/02/19 00:32:50;;;;;;;4.77;1.90;;;;;;;6.12;65.63;98367.78;4982325;28;20046;-82
2022/02/19 00:35:18;;;;;;;7.00;2.00;;;;;;;6.14;65.41;98376.47;4960914;28;20092;-82
2022/02/19 00:37:45;;;;;;;3.53;1.50;;;;;;;6.17;65.45;98365.88;4958707;28;20053;-83
2022/02/19 00:40:12;;;;;;;5.13;1.57;;;;;;;6.19;64.84;98364.03;5010555;28;20420;-82
2022/02/19 00:42:40;;;;;;;5.20;1.50;;;;;;;6.23;64.42;98386.59;4962683;28;20088;-83
2022/02/19 00:45:08;;;;;;;6.73;1.67;;;;;;;6.28;62.04;98363.66;4976592;28;20102;-82
2022/02/19 00:47:35;;;;;;;5.50;1.50;;;;;;;6.29;62.13;98365.38;4976350;28;20088;-83
2022/02/19 00:50:02;;;;;;;3.83;1.60;;;;;;;6.34;60.66;98350.31;4974948;28;20054;-83
2022/02/19 00:52:29;;;;;;;3.20;1.60;;;;;;;6.38;58.87;98351.03;4993655;28;20060;-84
2022/02/19 00:54:58;;;;;;;5.70;1.70;;;;;;;6.39;57.89;98363.22;4974843;28;20072;-84
2022/02/19 00:57:25;;;;;;;5.17;1.67;;;;;;;6.41;56.97;98361.41;4991385;28;20046;-80
2022/02/19 00:59:52;;;;;;;6.73;1.50;;;;;;;6.40;58.90;98338.72;4974836;28;20128;-81
2022/02/19 01:02:19;;;;;;;6.13;2.23;;;;;;;6.45;57.45;98357.72;4975396;28;20074;-82
2022/02/19 01:04:46;;;;;;;7.43;1.60;;;;;;;6.42;57.54;98344.75;4973971;28;20124;-83
2022/02/19 01:07:13;;;;;;;6.83;1.73;;;;;;;6.46;56.87;98381.28;4981034;28;20069;-82
2022/02/19 01:09:40;;;;;;;5.30;1.70;;;;;;;6.49;56.08;98357.56;4986794;28;20045;-80
2022/02/19 01:12:08;;;;;;;7.50;1.97;;;;;;;6.47;55.70;98363.75;4977030;28;20096;-81
2022/02/19 01:14:34;;;;;;;4.17;1.30;;;;;;;6.51;55.63;98351.41;4960722;28;20056;-82
2022/02/19 01:17:01;;;;;;;7.87;1.80;;;;;;;6.54;54.72;98359.97;4975561;28;20057;-83
2022/02/19 01:19:28;;;;;;;5.63;2.30;;;;;;;6.52;55.17;98330.34;4978073;28;20060;-83
2022/02/19 01:21:54;;;;;;;6.20;2.40;;;;;;;6.54;55.47;98343.38;4975807;28;20057;-84
2022/02/19 01:24:22;;;;;;;6.77;1.80;;;;;;;6.56;56.30;98338.94;4976647;28;20049;-84
2022/02/19 01:26:50;;;;;;;5.63;1.70;;;;;;;6.56;56.70;98349.41;4993072;28;20046;-82
2022/02/19 01:29:17;;;;;;;9.77;2.87;;;;;;;6.52;56.25;98330.34;4977225;28;20042;-82
2022/02/19 01:31:46;;;;;;;5.20;1.90;;;;;;;6.49;56.77;98336.59;4978600;28;20409;-82
2022/02/19 01:34:16;;;;;;;3.50;1.20;;;;;;;6.53;57.20;98336.44;4993140;28;20521;-78
2022/02/19 01:36:46;;;;;;;6.90;1.50;;;;;;;6.52;56.66;98335.59;4974533;28;20088;-82
2022/02/19 01:39:12;;;;;;;3.67;1.80;;;;;;;6.52;57.32;98345.22;4994954;28;20038;-82
2022/02/19 01:41:43;;;;;;;5.70;1.63;;;;;;;6.50;57.47;98337.44;4975342;28;20048;-81
2022/02/19 01:44:11;;;;;;;8.70;2.20;;;;;;;6.47;57.46;98364.66;4978983;28;20580;-81
2022/02/19 01:46:38;;;;;;;5.87;2.17;;;;;;;6.48;56.28;98350.63;4998081;28;20120;-81
2022/02/19 01:49:06;;;;;;;7.37;1.77;;;;;;;6.52;56.30;98368.84;4978383;28;20524;-82
2022/02/19 01:51:35;;;;;;;4.23;1.77;;;;;;;6.48;57.15;98349.75;4977283;28;20038;-81
2022/02/19 01:54:09;;;;;;;6.63;2.03;;;;;;;6.47;58.14;98333.19;4990493;28;20644;-82
2022/02/19 01:56:36;;;;;;;7.73;2.03;;;;;;;6.45;58.19;98352.50;4978958;28;20069;-81
2022/02/19 01:59:08;;;;;;;6.67;2.20;;;;;;;6.44;56.80;98337.69;4975658;28;20061;-81
2022/02/19 02:01:35;;;;;;;6.10;1.90;;;;;;;6.43;56.69;98347.31;4979897;28;21054;-83
2022/02/19 02:04:02;;;;;;;7.47;1.80;;;;;;;6.42;56.28;98345.63;4995045;28;20046;-81
2022/02/19 02:06:36;;;;;;;4.43;1.85;;;;;;;6.47;55.46;98312.19;4979386;28;20129;-82
2022/02/19 02:09:06;;;;;;;4.73;1.90;;;;;;;6.46;55.42;98354.19;4986739;28;20049;-81
2022/02/19 02:11:32;;;;;;;7.03;2.17;;;;;;;6.38;55.47;98354.50;4961162;28;20046;-81
2022/02/19 02:13:59;;;;;;;6.90;2.27;;;;;;;6.40;55.26;98330.88;4992680;28;20046;-82
2022/02/19 02:16:36;;;;;;;4.10;1.70;;;;;;;6.36;54.18;98339.75;4992749;28;20046;-82
2022/02/19 02:19:06;;;;;;;8.30;2.20;;;;;;;6.36;54.11;98321.41;4957430;28;20563;-82
2022/02/19 02:21:34;;;;;;;5.97;1.87;;;;;;;6.33;53.97;98345.13;4975794;28;20050;-83
2022/02/19 02:24:01;;;;;;;5.77;2.10;;;;;;;6.35;54.00;98362.50;4980691;28;20496;-81
2022/02/19 02:26:27;;;;;;;3.57;1.80;;;;;;;6.37;54.53;98354.56;4962339;28;20050;-83
2022/02/19 02:28:54;;;;;;;5.57;1.50;;;;;;;6.36;53.75;98324.03;4978827;28;20046;-83
2022/02/19 02:31:22;;;;;;;11.53;2.63;;;;;;;6.33;54.26;98338.13;4997764;28;20057;-81
2022/02/19 02:33:50;;;;;;;6.60;2.40;;;;;;;6.32;53.38;98322.44;4996232;28;20177;-81
2022/02/19 02:36:17;;;;;;;11.17;2.50;;;;;;;6.36;53.76;98352.88;4978718;28;20107;-82
2022/02/19 02:38:44;;;;;;;3.97;1.70;;;;;;;6.32;53.74;98344.28;4977310;28;20049;-82
2022/02/19 02:41:11;;;;;;;6.67;2.00;;;;;;;6.33;54.09;98345.13;4963716;28;20144;-82
2022/02/19 02:43:38;;;;;;;5.83;2.07;;;;;;;6.32;53.13;98377.53;4969940;28;20057;-81
2022/02/19 02:46:05;;;;;;;8.57;2.43;;;;;;;6.27;53.69;98348.84;4978520;28;20093;-80
2022/02/19 02:48:33;;;;;;;4.50;2.10;;;;;;;6.27;53.92;98338.34;4993637;28;20133;-81
2022/02/19 02:51:03;;;;;;;5.27;2.10;;;;;;;6.22;53.60;98361.28;4975694;28;20050;-81
2022/02/19 02:53:45;;;;;;;6.43;2.93;;;;;;;6.21;54.04;98357.78;4981717;28;20080;-82
2022/02/19 03:04:58;;;;;;;11.40;2.00;;;;;;;6.14;54.37;98393.06;5033406;28;20087;-79
2022/02/19 03:07:24;;;;;;;4.80;2.27;;;;;;;6.15;54.22;98371.16;5038316;28;20106;-78
2022/02/19 03:28:54;;;;;;;7.70;2.43;;;;;;;6.24;55.62;98408.44;5045167;28;20510;-85
2022/02/19 03:44:37;;;;;;;7.77;2.60;;;;;;;5.67;64.40;98476.03;5107511;27;20419;-84
2022/02/19 03:47:05;;;;;;;8.53;1.73;;;;;;;5.55;64.50;98479.94;5055095;28;20070;-84
2022/02/19 03:49:32;;;;;;;4.83;1.60;;;;;;;5.54;62.43;98470.34;5054303;28;20097;-85
2022/02/19 03:52:02;;;;;;;4.03;1.67;;;;;;;5.62;62.34;98475.31;5064864;28;20052;-84
2022/02/19 03:54:32;;;;;;;11.43;2.33;;;;;;;5.62;62.15;98475.31;5057123;28;20036;-84
2022/02/19 03:57:01;;;;;;;7.73;2.30;;;;;;;5.62;62.25;98489.25;5055773;28;20044;-85
2022/02/19 03:59:28;;;;;;;4.53;1.80;;;;;;;5.63;62.70;98509.34;5057264;28;20658;-84
2022/02/19 04:01:57;;;;;;;11.13;2.37;;;;;;;5.58;62.09;98500.78;5064744;28;20067;-83
2022/02/19 04:04:26;;;;;;;9.00;2.53;;;;;;;5.60;61.86;98480.63;5054545;28;20471;-84
2022/02/19 04:06:53;;;;;;;5.00;2.27;;;;;;;5.61;62.83;98478.84;5066264;28;20071;-85
2022/02/19 04:09:22;;;;;;;5.77;1.80;;;;;;;5.59;62.53;98531.28;5044874;28;20529;-83
2022/02/19 04:11:48;;;;;;;6.03;1.70;;;;;;;5.61;62.10;98513.75;5056535;28;20048;-84
2022/02/19 04:14:15;;;;;;;8.10;2.27;;;;;;;5.57;63.91;98540.97;5060821;28;20048;-85
2022/02/19 04:16:42;;;;;;;4.83;1.50;;;;;;;5.52;64.30;98545.50;5085578;28;20040;-82
2022/02/19 04:19:08;;;;;;;4.83;1.43;;;;;;;5.48;65.76;98532.59;5056713;28;20109;-83
2022/02/19 04:21:35;;;;;;;5.57;1.90;;;;;;;5.37;66.72;98559.09;5055810;28;20044;-81
2022/02/19 04:24:02;;;;;;;6.43;1.53;;;;;;;5.29;68.25;98558.50;5083467;28;20506;-84
2022/02/19 04:26:28;;;;;;;3.73;1.60;;;;;;;5.24;70.46;98552.56;5055314;28;20044;-82
2022/02/19 04:28:55;;;;;;;5.87;1.93;;;;;;;5.11;70.69;98591.34;5071788;28;20055;-83
2022/02/19 04:31:22;;;;;;;5.07;1.40;;;;;;;5.09;71.26;98616.72;5088959;28;20051;-83
2022/02/19 04:42:34;;;;;;;5.30;1.33;;;;;;;4.71;78.37;98668.47;5040850;28;20083;-81
2022/02/19 04:45:00;;;;;;;5.13;1.97;;;;;;;4.67;79.83;98668.56;5012901;28;20041;-82
2022/02/19 04:47:27;;;;;;;3.20;1.20;;;;;;;4.50;82.77;98664.69;5021235;28;20072;-81
2022/02/19 04:49:57;;;;;;;4.47;1.70;;;;;;;4.37;83.26;98699.03;5008787;28;20338;-82
2022/02/19 04:52:24;;;;;;;4.63;1.53;;;;;;;4.35;84.18;98665.09;5047548;28;20052;-81
2022/02/19 04:54:51;;;;;;;2.33;1.30;;;;;;;4.36;82.97;98698.16;5026565;28;20077;-80
2022/02/19 04:57:18;;;;;;;3.67;1.50;;;;;;;4.35;82.95;98679.91;5015351;28;20658;-82
2022/02/19 04:59:44;;;;;;;2.53;1.30;;;;;;;4.41;82.40;98700.69;5026335;28;20045;-81
2022/02/19 05:02:11;;;;;;;6.23;1.50;;;;;;;4.42;82.54;98716.31;5019194;28;20045;-81
2022/02/19 05:04:38;;;;;;;4.93;1.20;;;;;;;4.45;82.37;98731.91;5013296;28;20049;-83
2022/02/19 05:07:04;;;;;;;5.23;1.80;;;;;;;4.49;82.32;98724.88;5030291;28;20064;-82
2022/02/19 05:09:31;;;;;;;6.03;1.20;;;;;;;4.50;81.18;98714.34;5009949;28;20042;-84
2022/02/19 05:11:58;;;;;;;2.20;1.57;;;;;;;4.52;82.23;98775.31;5030811;28;20052;-82
2022/02/19 05:14:25;;;;;;;4.67;1.23;;;;;;;4.53;82.62;98766.56;4999988;28;20045;-83
2022/02/19 05:16:51;;;;;;;2.87;1.40;;;;;;;4.42;81.69;98745.06;4992800;28;20049;-83
2022/02/19 05:19:21;;;;;;;3.90;1.93;;;;;;;4.45;82.56;98723.22;4992103;28;20397;-82
2022/02/19 05:21:48;;;;;;;1.90;1.27;;;;;;;4.44;82.54;98758.09;5015476;28;20048;-83
2022/02/19 05:24:16;;;;;;;4.40;1.20;;;;;;;4.45;83.36;98734.53;5001953;28;20532;-82
2022/02/19 05:38:08;;;;;;;2.50;1.50;;;;;;;4.58;85.67;98799.59;5096927;27;20423;-84
2022/02/19 05:40:35;;;;;;;5.13;1.50;;;;;;;4.40;88.82;98793.94;5079997;28;20532;-81
2022/02/19 05:43:01;;;;;;;4.03;1.30;;;;;;;4.39;91.72;98810.53;5085495;28;20137;-85
2022/02/19 05:45:28;;;;;;;5.57;1.60;;;;;;;4.18;93.25;98811.03;5083729;28;20041;-82
2022/02/19 05:47:58;;;;;;;4.20;1.17;;;;;;;3.99;95.20;98831.53;5079077;28;20063;-79
2022/02/19 05:50:25;;;;;;;4.30;1.63;;;;;;;3.97;96.77;98822.03;5087357;28;20055;-84
2022/02/19 05:52:52;;;;;;;3.53;1.10;;;;;;;3.86;97.62;98833.56;5083362;28;20119;-84
2022/02/19 05:55:19;;;;;;;3.33;1.30;;;;;;;3.84;98.44;98837.09;5071709;28;20429;-82
2022/02/19 05:57:47;;;;;;;5.90;1.20;;;;;;;3.75;99.08;98846.00;5072408;28;20132;-84
2022/02/19 06:00:15;;;;;;;3.17;1.20;;;;;;;3.75;99.72;98851.22;5065437;28;20047;-84
2022/02/19 06:02:42;;;;;;;3.43;1.30;;;;;;;3.77;100.00;98878.16;5083967;28;20414;-85
2022/02/19 06:05:09;;;;;;;2.73;1.13;;;;;;;3.74;100.00;98867.78;5090168;28;20438;-83
2022/02/19 06:07:36;;;;;;;1.30;1.20;;;;;;;3.76;99.52;98881.69;5102357;28;20047;-84
2022/02/19 06:10:03;;;;;;;4.30;2.20;;;;;;;3.74;98.23;98880.84;5066840;28;20126;-84
2022/02/19 06:12:30;;;;;;;1.50;1.07;;;;;;;3.76;98.52;98892.13;5069166;28;20117;-86
2022/02/19 06:14:56;;;;;;;1.93;1.17;;;;;;;3.79;97.55;98920.81;5070647;28;20044;-86
2022/02/19 06:17:23;;;;;;;2.43;0.90;;;;;;;3.81;96.88;98924.25;5079795;28;20028;-84
2022/02/19 06:19:50;;;;;;;2.63;1.10;;;;;;;3.82;95.87;98931.19;5090587;28;20044;-84
2022/02/19 06:22:17;;;;;;;2.80;1.00;;;;;;;3.85;96.68;98936.34;5068619;28;20035;-88
2022/02/19 06:24:44;;;;;;;1.90;0.97;;;;;;;3.86;96.63;98956.34;5075988;28;20056;-88
2022/02/19 06:27:11;;;;;;;3.77;2.20;;;;;;;3.89;97.22;98971.97;5077448;28;20412;-82
2022/02/19 06:29:38;;;;;;;3.00;0.90;;;;;;;3.80;97.10;98951.25;5068427;28;20047;-81
2022/02/19 06:32:05;;;;;;;2.60;1.00;;;;;;;3.72;98.94;98997.56;5065131;28;20507;-83
2022/02/19 06:34:32;;;;;;;1.70;0.90;;;;;;;3.75;100.00;98994.88;5088340;28;20044;-80
2022/02/19 06:36:58;;;;;;;6.00;2.27;;;;;;;3.76;100.00;99017.50;5075948;28;20036;-82
2022/02/19 06:39:25;;;;;;;12.73;5.67;;;;;;;3.69;99.78;99031.56;5060900;28;20479;-84
2022/02/19 06:41:52;;;;;;;6.43;3.67;;;;;;;3.74;100.00;99039.31;5063422;28;20047;-82
2022/02/19 06:44:19;;;;;;;29.83;12.93;;;;;;;3.64;98.01;99025.56;5078873;28;20044;-82
2022/02/19 06:46:46;;;;;;;48.57;31.77;;;;;;;3.73;99.07;99063.72;5053507;28;20128;-83
2022/02/19 06:49:13;;;;;;;2.57;1.83;;;;;;;3.74;98.78;99074.13;5026563;23;20080;-85
2022/02/19 06:51:40;;;;;;;5.40;1.70;;;;;;;3.79;97.35;99066.22;4999941;28;20048;-79
2022/02/19 06:54:07;;;;;;;2.10;1.30;;;;;;;3.87;96.53;99072.16;4994937;28;20049;-84
2022/02/19 06:56:34;;;;;;;3.63;1.93;;;;;;;3.88;95.77;99090.41;4998894;28;20065;-82
2022/02/19 06:59:01;;;;;;;4.50;1.77;;;;;;;3.88;95.51;99106.09;5000335;28;20513;-80
2022/02/19 07:01:29;;;;;;;3.70;2.97;;;;;;;3.90;94.91;99082.53;4984253;28;20046;-82
2022/02/19 07:03:59;;;;;;;3.53;1.53;;;;;;;3.95;94.24;99118.16;4985622;28;20435;-80
2022/02/19 07:06:26;;;;;;;10.57;2.47;;;;;;;3.95;93.40;99112.94;4987683;28;20064;-80
2022/02/19 07:08:53;;;;;;;6.00;5.33;;;;;;;4.05;93.28;99146.72;4987459;28;20503;-81
2022/02/19 07:11:21;;;;;;;3.03;1.50;;;;;;;4.08;93.58;99150.13;4986141;28;20141;-81
2022/02/19 07:13:48;;;;;;;4.10;1.07;;;;;;;4.08;94.14;99162.34;5007416;28;20049;-81
2022/02/19 07:16:16;;;;;;;2.77;0.90;;;;;;;4.09;95.91;99169.28;4989273;28;20382;-82
2022/02/19 07:18:44;;;;;;;5.27;1.20;;;;;;;4.04;97.06;99190.31;4993728;28;20042;-81
2022/02/19 07:21:12;;;;;;;1.40;0.83;;;;;;;4.03;99.08;99175.47;5021683;28;20113;-80
2022/02/19 07:23:42;;;;;;;3.60;2.70;;;;;;;3.99;100.00;99183.41;4980467;28;20048;-82
2022/02/19 07:26:09;;;;;;;4.00;2.13;;;;;;;3.97;100.00;99199.13;5010802;28;20050;-82
2022/02/19 07:28:36;;;;;;;1.80;1.17;;;;;;;3.98;100.00;99205.22;4996967;28;20129;-83
2022/02/19 07:31:03;;;;;;;1.83;1.37;;;;;;;4.02;100.00;99205.13;5007724;28;20431;-81
2022/02/19 07:33:29;;;;;;;5.10;1.13;;;;;;;4.03;100.00;99219.91;5000509;28;20037;-83
2022/02/19 07:35:56;;;;;;;3.00;0.90;;;;;;;4.04;99.97;99220.78;5000324;28;20717;-82
2022/02/19 07:38:23;;;;;;;2.43;1.40;;;;;;;4.04;98.24;99231.25;4984827;28;20041;-82
2022/02/19 07:40:50;;;;;;;2.50;0.90;;;;;;;4.09;97.26;99245.94;4988423;28;20045;-81
2022/02/19 07:43:17;;;;;;;1.40;0.60;;;;;;;4.02;92.97;99254.78;4981629;28;20041;-81
2022/02/19 07:45:44;;;;;;;1.50;0.90;;;;;;;4.10;93.79;99267.72;4997417;28;20050;-85
2022/02/19 07:48:13;;;;;;;1.47;0.80;;;;;;;4.17;93.95;99253.66;4978483;28;20046;-82
2022/02/19 07:58:59;;;;;;;1.13;0.53;;;;;;;4.26;91.86;99315.38;5014782;28;20463;-81
2022/02/19 08:01:26;;;;;;;3.30;1.73;;;;;;;4.27;93.40;99304.88;4970153;28;20053;-80
2022/02/19 08:03:53;;;;;;;1.83;1.00;;;;;;;4.28;94.77;99309.22;5015442;28;20103;-81
2022/02/19 08:06:19;;;;;;;1.27;0.93;;;;;;;4.31;96.33;99330.09;4979979;28;20041;-82
2022/02/19 08:08:46;;;;;;;2.53;0.90;;;;;;;4.23;97.85;99327.63;4993670;28;20420;-81
2022/02/19 08:11:14;;;;;;;1.30;0.70;;;;;;;4.03;99.89;99332.28;4980770;28;20053;-80
2022/02/19 08:13:41;;;;;;;3.50;0.80;;;;;;;4.01;100.00;99356.72;4995681;28;20038;-80
2022/02/19 08:16:10;;;;;;;1.10;1.00;;;;;;;3.91;100.00;99369.06;5006852;28;20045;-80
2022/02/19 08:18:38;;;;;;;1.07;1.00;;;;;;;3.80;100.00;99369.22;5008504;28;20049;-81
2022/02/19 08:21:05;;;;;;;1.97;0.93;;;;;;;3.72;100.00;99380.66;4990960;28;20096;-81
2022/02/19 08:23:32;;;;;;;5.73;1.10;;;;;;;3.75;100.00;99394.53;4990103;28;20042;-81
2022/02/19 08:26:03;;;;;;;1.57;0.80;;;;;;;3.81;100.00;99397.06;4991488;28;20107;-80
2022/02/19 08:28:38;;;;;;;1.90;0.97;;;;;;;3.88;100.00;99405.69;4976052;28;20513;-80
2022/02/19 08:31:07;;;;;;;2.40;0.70;;;;;;;3.99;100.00;99415.97;4973647;28;20137;-82
2022/02/19 08:33:34;;;;;;;1.27;0.60;;;;;;;4.00;100.00;99415.97;5007010;28;20417;-81
2022/02/19 08:36:00;;;;;;;1.03;0.93;;;;;;;4.05;100.00;99455.97;4973885;28;20041;-84
2022/02/19 08:38:27;;;;;;;2.23;0.70;;;;;;;4.06;100.00;99441.16;4976061;28;20382;-83
2022/02/19 08:40:54;;;;;;;1.67;0.90;;;;;;;4.14;100.00;99449.75;5007293;28;20034;-80
2022/02/19 08:43:21;;;;;;;1.00;0.90;;;;;;;4.18;100.00;99440.97;4994062;28;20065;-82
2022/02/19 08:45:47;;;;;;;3.57;1.90;;;;;;;4.25;100.00;99471.38;4990106;28;20046;-80
2022/02/19 08:48:14;;;;;;;1.00;0.90;;;;;;;4.33;100.00;99468.66;4990675;28;20490;-81
2022/02/19 08:50:41;;;;;;;0.93;0.70;;;;;;;4.24;100.00;99472.25;4991298;28;20049;-83
2022/02/19 08:53:10;;;;;;;1.27;1.10;;;;;;;4.32;100.00;99485.22;4975455;28;20587;-81
2022/02/19 08:55:37;;;;;;;1.60;0.80;;;;;;;4.24;100.00;99477.50;4990227;28;20041;-79
2022/02/19 08:58:05;;;;;;;3.00;0.87;;;;;;;4.17;100.00;99513.28;4991953;28;20046;-80
2022/02/19 09:00:31;;;;;;;1.30;0.80;;;;;;;4.03;100.00;99511.72;4993236;28;20037;-80
2022/02/19 09:02:58;;;;;;;1.03;0.80;;;;;;;4.04;100.00;99508.25;4990742;28;20160;-80
2022/02/19 09:05:26;;;;;;;1.87;0.87;;;;;;;4.08;100.00;99523.88;5010165;28;20092;-80
2022/02/19 09:07:53;;;;;;;1.67;1.00;;;;;;;4.17;100.00;99528.13;4991541;28;20034;-80
2022/02/19 09:10:20;;;;;;;1.43;0.87;;;;;;;4.21;100.00;99535.91;4977188;28;20436;-84
2022/02/19 09:12:49;;;;;;;1.30;0.60;;;;;;;4.15;100.00;99545.56;4992022;28;20053;-80
2022/02/19 09:15:18;;;;;;;1.87;0.80;;;;;;;4.20;100.00;99564.66;4989742;28;20504;-82
2022/02/19 09:17:45;;;;;;;3.47;0.97;;;;;;;4.23;100.00;99552.44;4989862;28;20540;-81
2022/02/19 09:20:13;;;;;;;1.90;1.03;;;;;;;4.34;99.53;99562.75;4993208;28;20398;-82
2022/02/19 09:22:40;;;;;;;2.77;1.00;;;;;;;4.42;99.02;99563.53;5005793;28;20049;-83
2022/02/19 09:25:08;;;;;;;2.80;0.90;;;;;;;4.54;97.00;99575.59;4968513;28;20471;-81
2022/02/19 09:27:35;;;;;;;1.33;0.97;;;;;;;4.64;97.45;99581.56;4982487;28;20465;-82
2022/02/19 09:30:03;;;;;;;1.87;0.90;;;;;;;4.64;95.13;99600.72;4991749;28;20489;-84
2022/02/19 09:32:30;;;;;;;8.90;4.13;;;;;;;4.65;94.63;99596.34;5008454;28;20045;-82
2022/02/19 09:34:57;;;;;;;1.23;0.90;;;;;;;4.80;95.20;99597.03;4994514;28;20061;-84
2022/02/19 09:37:27;;;;;;;1.83;0.80;;;;;;;5.05;94.92;99601.91;5008746;28;20133;-84
2022/02/19 09:39:59;;;;;;;0.63;0.53;;;;;;;5.17;91.48;99624.41;4980561;28;20041;-83
2022/02/19 09:42:26;;;;;;;1.03;0.60;;;;;;;5.41;94.51;99621.41;4985303;28;20046;-81
2022/02/19 09:44:54;;;;;;;1.27;0.60;;;;;;;5.41;90.04;99642.34;4977733;28;20044;-82
2022/02/19 09:47:26;;;;;;;1.90;0.60;;;;;;;5.39;91.40;99638.03;5012768;28;20065;-81
2022/02/19 09:49:53;;;;;;;0.63;0.50;;;;;;;5.28;89.33;99639.03;5014556;28;20047;-82
2022/02/19 09:52:20;;;;;;;5.90;0.97;;;;;;;5.14;89.87;99646.25;5019095;28;20045;-81
2022/02/19 09:54:47;;;;;;;1.83;0.70;;;;;;;4.99;90.87;99680.50;5014163;28;20052;-81
2022/02/19 09:57:15;;;;;;;1.37;0.67;;;;;;;5.00;92.41;99667.38;5011997;28;20094;-83
2022/02/19 09:59:41;;;;;;;2.60;0.50;;;;;;;4.78;92.46;99679.88;5019825;28;20049;-83
2022/02/19 10:02:08;;;;;;;0.40;0.40;;;;;;;4.72;93.29;99684.34;5004289;28;20098;-82
2022/02/19 10:04:36;;;;;;;0.80;0.40;;;;;;;4.33;95.00;99704.84;5031773;28;20118;-81
2022/02/19 10:07:17;;;;;;;1.10;0.60;;;;;;;4.49;97.53;99713.38;5015952;28;20044;-83
2022/02/19 10:09:49;;;;;;;1.30;0.80;;;;;;;4.34;99.52;99731.84;5017464;28;20136;-85
2022/02/19 10:12:17;;;;;;;1.30;0.47;;;;;;;4.39;100.00;99745.75;5015885;28;20041;-84
2022/02/19 10:14:44;;;;;;;0.53;0.53;;;;;;;4.37;100.00;99752.72;5033850;28;20104;-82
2022/02/19 10:17:22;;;;;;;0.70;0.40;;;;;;;4.34;100.00;99758.88;5039354;28;20786;-81
2022/02/19 10:19:58;;;;;;;1.03;0.60;;;;;;;4.31;100.00;99763.28;5023307;28;20058;-85
2022/02/19 10:22:26;;;;;;;1.67;0.53;;;;;;;4.40;100.00;99764.03;5018367;28;20499;-85
2022/02/19 10:25:04;;;;;;;0.73;0.53;;;;;;;4.44;100.00;99770.97;5033746;28;20045;-84
2022/02/19 10:27:57;;;;;;;3.50;0.80;;;;;;;4.87;100.00;99765.25;5031115;28;20133;-83
2022/02/19 10:30:29;;;;;;;0.97;0.60;;;;;;;5.15;99.76;99793.75;5017404;28;20585;-82
2022/02/19 10:33:06;;;;;;;0.60;0.60;;;;;;;5.44;97.89;99788.97;5026671;28;20056;-84
2022/02/19 10:35:36;;;;;;;1.20;1.07;;;;;;;5.57;96.20;99787.94;5036060;28;20045;-87
2022/02/19 10:38:05;;;;;;;1.27;0.90;;;;;;;5.58;95.60;99802.78;4996614;28;20041;-82
2022/02/19 10:40:40;;;;;;;1.87;0.80;;;;;;;5.52;92.01;99805.47;5022283;28;20055;-84
2022/02/19 10:43:09;;;;;;;3.03;0.70;;;;;;;5.47;92.41;99806.44;5016569;28;20045;-82
2022/02/19 10:45:37;;;;;;;1.30;0.70;;;;;;;5.42;92.24;99821.34;5034987;28;20056;-85
2022/02/19 10:48:12;;;;;;;3.23;0.93;;;;;;;5.30;91.50;99812.75;5014509;28;20495;-85
2022/02/19 10:50:41;;;;;;;2.13;0.87;;;;;;;5.25;92.30;99813.69;5017632;28;20056;-81
2022/02/19 10:53:09;;;;;;;1.80;0.57;;;;;;;5.15;92.62;99819.94;5015029;28;20091;-84
2022/02/19 10:55:37;;;;;;;1.23;0.90;;;;;;;5.14;93.06;99815.59;5021398;28;20071;-85
2022/02/19 10:58:05;;;;;;;1.43;0.60;;;;;;;5.00;94.89;99834.06;5017890;28;20072;-82
2022/02/19 11:00:35;;;;;;;2.60;1.00;;;;;;;4.73;96.15;99843.06;5020634;28;21886;-81
2022/02/19 11:03:06;;;;;;;1.23;0.73;;;;;;;4.77;99.77;99840.38;5023289;28;20045;-82
2022/02/19 11:05:33;;;;;;;1.23;0.80;;;;;;;4.78;99.20;99865.66;5037300;28;20045;-81
2022/02/19 11:08:01;;;;;;;2.30;0.90;;;;;;;4.83;98.52;99868.25;5023373;28;20091;-82
2022/02/19 11:10:30;;;;;;;1.33;0.50;;;;;;;4.83;95.98;99862.16;5030609;28;20087;-82
2022/02/19 11:13:02;;;;;;;1.30;1.17;;;;;;;4.99;97.07;99874.22;5025881;28;20053;-81
2022/02/19 11:15:32;;;;;;;1.57;0.87;;;;;;;4.98;97.55;99878.59;5016235;28;20045;-81
2022/02/19 11:18:00;;;;;;;1.30;0.80;;;;;;;4.89;99.23;99889.16;5017915;28;20040;-82
2022/02/19 11:20:26;;;;;;;1.37;0.70;;;;;;;4.96;99.05;99884.69;5021338;28;20143;-82
2022/02/19 11:22:57;;;;;;;3.33;1.37;;;;;;;5.02;98.65;99889.88;5038578;28;20049;-84
2022/02/19 11:25:24;;;;;;;1.73;1.00;;;;;;;5.09;98.01;99886.31;4997170;28;20454;-81
2022/02/19 11:27:58;;;;;;;2.47;1.00;;;;;;;5.14;94.87;99896.75;5019612;28;20186;-80
2022/02/19 11:30:27;;;;;;;2.10;1.30;;;;;;;5.20;93.14;99907.13;5018352;28;20055;-82
2022/02/19 11:32:54;;;;;;;1.03;0.90;;;;;;;5.24;90.46;99895.75;5018478;28;20051;-80
2022/02/19 11:35:33;;;;;;;1.10;0.80;;;;;;;5.33;91.99;99922.72;5037042;28;20108;-81
2022/02/19 11:38:00;;;;;;;2.47;1.17;;;;;;;5.28;88.27;99916.66;5036171;28;20044;-80
2022/02/19 11:40:26;;;;;;;2.30;0.70;;;;;;;5.31;89.21;99915.75;5020199;28;20041;-80
2022/02/19 11:42:56;;;;;;;2.53;0.80;;;;;;;5.30;88.01;99932.38;5033998;28;20041;-83
2022/02/19 11:45:31;;;;;;;1.80;0.90;;;;;;;5.28;87.93;99945.44;5020676;28;20123;-80
2022/02/19 11:48:04;;;;;;;2.93;1.20;;;;;;;5.25;88.35;99942.88;5025796;28;20484;-83
2022/02/19 11:50:33;;;;;;;3.23;1.20;;;;;;;5.19;89.60;99957.78;5014614;28;20790;-81
2022/02/19 11:53:12;;;;;;;5.23;1.50;;;;;;;4.86;89.36;99944.13;5026079;28;20047;-80
2022/02/19 11:55:43;;;;;;;2.77;1.00;;;;;;;4.89;92.43;99951.09;5014009;28;20056;-83
2022/02/19 11:58:16;;;;;;;1.27;1.00;;;;;;;4.92;93.35;99972.00;5013387;28;20048;-80
2022/02/19 12:00:50;;;;;;;3.28;1.42;;;;;;;4.78;93.04;99972.09;5013313;28;20076;-81
2022/02/19 12:03:30;;;;;;;3.70;1.60;;;;;;;4.65;92.54;99975.72;5019301;28;20491;-80
2022/02/19 12:06:19;;;;;;;3.13;1.20;;;;;;;4.80;93.99;99979.06;5019649;28;20048;-81
2022/02/19 12:08:46;;;;;;;3.93;1.60;;;;;;;4.80;94.02;99971.22;5019153;28;20047;-80
2022/02/19 12:11:23;;;;;;;3.00;2.07;;;;;;;4.93;94.96;99979.81;5030073;28;20048;-80
2022/02/19 12:13:52;;;;;;;4.77;1.57;;;;;;;4.93;94.18;99976.34;5032588;28;20061;-81
2022/02/19 12:16:31;;;;;;;2.67;1.40;;;;;;;4.90;92.16;99990.34;5004593;28;20041;-81
2022/02/19 12:19:06;;;;;;;3.57;1.60;;;;;;;4.87;93.04;99992.97;5047411;28;20128;-82
2022/02/19 12:21:36;;;;;;;3.67;1.40;;;;;;;4.91;91.91;99992.06;5011554;28;20664;-79
2022/02/19 12:24:12;;;;;;;4.93;1.83;;;;;;;4.89;93.91;99999.06;5020956;28;20123;-83
2022/02/19 12:27:10;;;;;;;5.00;1.70;;;;;;;4.82;92.63;100010.47;5019372;28;20045;-81
2022/02/19 12:29:40;;;;;;;6.00;1.83;;;;;;;4.87;93.10;99997.31;5029068;28;20084;-82
2022/02/19 12:32:22;;;;;;;4.33;2.00;;;;;;;4.89;92.42;100000.81;5033382;28;20080;-82
2022/02/19 12:34:51;;;;;;;4.60;2.00;;;;;;;4.88;90.14;100002.56;5022990;28;20040;-81
2022/02/19 12:37:18;;;;;;;6.60;2.03;;;;;;;4.86;90.15;100012.16;5035787;28;20116;-83
2022/02/19 12:39:53;;;;;;;4.33;1.77;;;;;;;4.92;90.45;100022.59;5016456;28;20100;-81
2022/02/19 12:42:30;;;;;;;5.70;1.97;;;;;;;4.96;89.82;100019.09;5021159;28;20051;-82
2022/02/19 12:45:03;;;;;;;6.80;3.23;;;;;;;4.95;88.67;100024.31;5023881;28;20041;-82
2022/02/19 12:47:34;;;;;;;5.68;3.88;;;;;;;5.05;89.86;100029.47;5040162;28;20033;-84
2022/02/19 12:50:07;;;;;;;4.20;2.43;;;;;;;5.22;89.27;100020.63;5025716;28;20040;-79
2022/02/19 12:52:35;;;;;;;6.23;2.67;;;;;;;5.36;86.57;100027.44;5013699;28;20466;-83
2022/02/19 12:55:02;;;;;;;8.27;3.37;;;;;;;5.52;86.71;100027.28;5020840;28;20820;-81